This is the latest recevied weather packets stored in our database for station/object VU3KEB-13. If no packets are shown the sender has not sent any weather packets the latest 10 day(s).
| Time | Temp. | Humidity | Pressure | Rain* | Wind** | Luminosity | Snow |
|---|---|---|---|---|---|---|---|
| 1788328104 | 27.78° C | 54% | 1024.5 hPa | - | - | - | - |
| 1788325675 | 27.22° C | 60% | 1025 hPa | - | - | - | - |
| 1788322030 | 25.56° C | 66% | 1024.8 hPa | - | - | - | - |
| 1788270195 | 22.78° C | 93% | 1022.6 hPa | - | - | - | - |
| 1788268979 | 22.78° C | 93% | 1022.6 hPa | - | - | - | - |
| 1788267766 | 23.33° C | 84% | 1021.9 hPa | - | - | - | - |
| 1788266552 | 24.44° C | 84% | 1021.9 hPa | - | - | - | - |
| 1788265337 | 23.89° C | 86% | 1021.5 hPa | - | - | - | - |
| 1788264122 | 24.44° C | 84% | 1021.2 hPa | - | - | - | - |
| 1788262908 | 25° C | 84% | 1021.2 hPa | - | - | - | - |
| 1788261694 | 25.56° C | 84% | 1021.2 hPa | - | - | - | - |
| 1788260480 | 26.11° C | 74% | 1020.8 hPa | - | - | - | - |
| 1788259264 | 27.22° C | 74% | 1020.8 hPa | - | - | - | - |
| 1788258049 | 28.33° C | 74% | 1020.8 hPa | - | - | - | - |
| 1788256835 | 28.89° C | 54% | 1020.8 hPa | - | - | - | - |
| 1788255619 | 29.44° C | 54% | 1020.8 hPa | - | - | - | - |
| 1788254404 | 29.44° C | 54% | 1020.8 hPa | - | - | - | - |
| 1788253189 | 29.44° C | 56% | 1021.4 hPa | - | - | - | - |
| 1788251975 | 29.44° C | 56% | 1021.4 hPa | - | - | - | - |
| 1788250761 | 29.44° C | 56% | 1021.4 hPa | - | - | - | - |
| 1788249546 | 28.89° C | 58% | 1022.2 hPa | - | - | - | - |
| 1788248332 | 28.33° C | 58% | 1022.2 hPa | - | - | - | - |
| 1788247117 | 27.78° C | 58% | 1022.2 hPa | - | - | - | - |
| 1788245903 | 27.78° C | 60% | 1022.8 hPa | - | - | - | - |
| 1788244686 | 27.78° C | 54% | 1023.4 hPa | - | - | - | - |
* Rain since midnight (hover to see other rain measurements)
** Current wind speed in m/s (hover to see current wind gust speed)